createdAt,value
2019-06-07T00:02:22.379Z,101168.54
2019-06-07T00:04:52.461Z,101162.73
2019-06-07T00:07:22.535Z,101172.72
2019-06-07T00:09:52.620Z,101169.23
2019-06-07T00:12:22.737Z,101156.59
2019-06-07T00:14:52.827Z,101158.38
2019-06-07T00:17:22.901Z,101159.06
2019-06-07T00:19:52.997Z,101160.96
2019-06-07T00:22:32.388Z,101154.11
2019-06-07T00:24:54.907Z,101154.48
2019-06-07T00:27:25.006Z,101148.52
2019-06-07T00:29:55.057Z,101148.73
2019-06-07T00:32:25.156Z,101151.81
2019-06-07T00:34:55.229Z,101149.74
2019-06-07T00:37:25.663Z,101149.00
2019-06-07T00:40:13.498Z,101143.20
2019-06-07T00:42:27.962Z,101150.16
2019-06-07T00:44:58.062Z,101159.28
2019-06-07T00:47:28.155Z,101160.95
2019-06-07T00:49:58.252Z,101158.38
2019-06-07T00:55:00.152Z,101152.82
2019-06-07T00:57:30.230Z,101162.70
2019-06-07T01:00:00.324Z,101159.57
2019-06-07T01:02:31.631Z,101159.03
2019-06-07T01:05:01.984Z,101145.30
2019-06-07T01:07:32.082Z,101151.50
2019-06-07T01:10:02.180Z,101147.38
2019-06-07T01:12:32.227Z,101143.03
2019-06-07T01:15:02.314Z,101150.88
2019-06-07T01:17:41.202Z,101141.23
2019-06-07T01:20:04.711Z,101144.56
2019-06-07T01:22:34.779Z,101151.22
2019-06-07T01:25:05.157Z,101160.09
2019-06-07T01:27:35.219Z,101154.16
2019-06-07T01:30:07.137Z,101156.06
2019-06-07T01:32:37.214Z,101152.91
2019-06-07T01:35:08.128Z,101155.91
2019-06-07T01:37:38.245Z,101161.98
2019-06-07T01:40:08.803Z,101159.52
2019-06-07T01:42:38.877Z,101161.61
2019-06-07T01:45:09.996Z,101165.69
2019-06-07T01:47:40.087Z,101157.64
2019-06-07T01:50:11.971Z,101154.09
2019-06-07T01:52:42.023Z,101147.75
2019-06-07T01:55:12.357Z,101154.00
2019-06-07T01:57:48.116Z,101148.31
2019-06-07T02:00:14.734Z,101149.41
2019-06-07T02:02:44.802Z,101146.34
2019-06-07T02:05:15.079Z,101149.71
2019-06-07T02:07:45.143Z,101149.25
2019-06-07T02:10:15.747Z,101137.48
2019-06-07T02:12:45.797Z,101138.06
2019-06-07T02:15:16.207Z,101139.02
2019-06-07T02:17:46.417Z,101133.02
2019-06-07T02:20:16.912Z,101133.62
2019-06-07T02:22:47.009Z,101134.09
2019-06-07T02:27:50.271Z,101118.53
2019-06-07T02:30:44.100Z,101112.28
2019-06-07T02:32:52.225Z,101109.56
2019-06-07T02:35:26.063Z,101112.28
2019-06-07T02:37:54.174Z,101113.44
2019-06-07T02:40:28.069Z,101112.28
2019-06-07T02:42:56.539Z,101112.94
2019-06-07T02:45:29.886Z,101114.80
2019-06-07T02:47:58.435Z,101117.81
2019-06-07T02:50:35.402Z,101110.55
2019-06-07T02:53:00.309Z,101121.05
2019-06-07T02:55:36.573Z,101123.59
2019-06-07T02:58:02.219Z,101122.50
2019-06-07T03:01:00.533Z,101125.05
2019-06-07T03:03:15.869Z,101115.50
2019-06-07T03:05:46.956Z,101120.59
2019-06-07T03:08:18.154Z,101121.85
2019-06-07T03:10:50.075Z,101122.27
2019-06-07T03:13:21.663Z,101124.27
2019-06-07T03:15:54.146Z,101119.52
2019-06-07T03:18:42.185Z,101123.20
2019-06-07T03:21:16.611Z,101121.06
2019-06-07T03:23:47.033Z,101118.73
2019-06-07T03:26:17.931Z,101117.61
2019-06-07T03:28:48.351Z,101124.59
2019-06-07T03:31:18.644Z,101122.47
2019-06-07T03:33:48.745Z,101124.20
2019-06-07T03:36:25.451Z,101120.08
2019-06-07T03:38:50.719Z,101121.13
2019-06-07T03:41:20.834Z,101123.92
2019-06-07T03:43:50.917Z,101125.80
2019-06-07T03:46:21.029Z,101124.53
2019-06-07T03:48:51.097Z,101122.65
2019-06-07T03:51:25.328Z,101124.19
2019-06-07T03:53:53.038Z,101125.22
2019-06-07T03:56:23.112Z,101121.69
2019-06-07T03:58:53.199Z,101118.91
2019-06-07T04:01:23.644Z,101126.41
2019-06-07T04:03:53.728Z,101126.83
2019-06-07T04:06:23.874Z,101121.98
2019-06-07T04:08:53.952Z,101127.73
2019-06-07T04:11:24.121Z,101131.68
2019-06-07T04:13:54.231Z,101132.17
2019-06-07T04:16:24.332Z,101133.23
2019-06-07T04:18:54.469Z,101132.94
2019-06-07T04:21:24.578Z,101129.89
2019-06-07T04:23:54.685Z,101130.94
2019-06-07T04:26:24.786Z,101131.42
2019-06-07T04:29:31.559Z,101119.52
2019-06-07T04:31:26.686Z,101116.27
2019-06-07T04:33:56.773Z,101121.25
2019-06-07T04:36:42.777Z,101123.36
2019-06-07T04:39:01.246Z,101122.44
2019-06-07T04:41:33.435Z,101122.05
2019-06-07T04:44:03.557Z,101124.54
2019-06-07T04:46:35.207Z,101133.81
2019-06-07T04:49:06.271Z,101131.50
2019-06-07T04:51:42.093Z,101129.43
2019-06-07T04:54:09.671Z,101132.14
2019-06-07T04:56:43.724Z,101136.46
2019-06-07T04:59:12.035Z,101143.17
2019-06-07T05:01:42.842Z,101142.87
2019-06-07T05:04:13.104Z,101139.05
2019-06-07T05:06:43.279Z,101144.95
2019-06-07T05:09:13.982Z,101151.31
2019-06-07T05:11:45.055Z,101147.43
2019-06-07T05:14:15.409Z,101150.63
2019-06-07T05:16:45.894Z,101152.63
2019-06-07T05:19:16.045Z,101163.28
2019-06-07T05:22:02.533Z,101163.12
2019-06-07T05:24:18.417Z,101158.80
2019-06-07T05:26:49.124Z,101148.17
2019-06-07T05:29:20.847Z,101151.92
2019-06-07T05:31:50.947Z,101156.13
2019-06-07T05:34:21.134Z,101155.43
2019-06-07T05:37:10.684Z,101154.55
2019-06-07T05:39:23.076Z,101161.67
2019-06-07T05:41:53.149Z,101156.13
2019-06-07T05:44:23.227Z,101159.84
2019-06-07T05:46:53.329Z,101153.73
2019-06-07T05:49:23.515Z,101160.59
2019-06-07T05:51:53.643Z,101161.09
2019-06-07T05:54:23.711Z,101160.26
2019-06-07T05:56:53.783Z,101163.09
2019-06-07T05:59:23.909Z,101169.86
2019-06-07T06:02:02.610Z,101173.34
2019-06-07T06:04:25.841Z,101181.97
2019-06-07T06:06:55.910Z,101191.95
2019-06-07T06:09:26.016Z,101201.33
2019-06-07T06:12:02.010Z,101197.55
2019-06-07T06:14:28.073Z,101196.95
2019-06-07T06:16:58.238Z,101192.78
2019-06-07T06:19:28.352Z,101187.50
2019-06-07T06:21:58.507Z,101185.23
2019-06-07T06:24:28.609Z,101189.06
2019-06-07T06:27:15.326Z,101196.49
2019-06-07T06:29:32.176Z,101195.44
2019-06-07T06:32:40.710Z,101191.48
2019-06-07T06:34:34.081Z,101190.94
2019-06-07T06:37:04.215Z,101179.95
2019-06-07T06:39:34.515Z,101182.30
2019-06-07T06:42:04.785Z,101186.22
2019-06-07T06:44:34.876Z,101179.44
2019-06-07T06:47:04.995Z,101178.59
2019-06-07T06:49:35.107Z,101176.38
2019-06-07T06:52:05.203Z,101174.45
2019-06-07T06:54:40.804Z,101182.77
2019-06-07T06:57:19.212Z,101180.85
2019-06-07T06:59:41.252Z,101180.46
2019-06-07T07:02:11.291Z,101181.89
2019-06-07T07:04:43.998Z,101183.48
2019-06-07T07:07:14.568Z,101188.56
2019-06-07T07:09:49.471Z,101186.56
2019-06-07T07:12:16.584Z,101187.91
2019-06-07T07:14:49.165Z,101181.97
2019-06-07T07:17:18.484Z,101179.70
2019-06-07T07:19:50.422Z,101174.16
2019-06-07T07:22:20.439Z,101169.63
2019-06-07T07:24:53.382Z,101166.34
2019-06-07T07:27:24.091Z,101171.47
2019-06-07T07:30:34.284Z,101166.59
2019-06-07T07:32:26.023Z,101165.27
2019-06-07T07:35:00.585Z,101153.29
2019-06-07T07:37:27.998Z,101155.43
2019-06-07T07:40:21.278Z,101165.08
2019-06-07T07:42:30.149Z,101158.55
2019-06-07T07:45:00.245Z,101164.72
2019-06-07T07:47:30.372Z,101166.73
2019-06-07T07:50:00.504Z,101162.50
2019-06-07T07:52:30.598Z,101169.03
2019-06-07T07:55:00.742Z,101161.05
2019-06-07T07:57:30.915Z,101166.08
2019-06-07T08:00:35.256Z,101170.51
2019-06-07T08:02:32.854Z,101172.05
2019-06-07T08:05:25.664Z,101168.27
2019-06-07T08:07:35.448Z,101158.91
2019-06-07T08:10:06.647Z,101165.52
2019-06-07T08:12:55.584Z,101165.28
2019-06-07T08:15:09.224Z,101166.18
2019-06-07T08:17:39.377Z,101170.77
2019-06-07T08:20:09.751Z,101166.55
2019-06-07T08:22:39.922Z,101163.73
2019-06-07T08:25:10.536Z,101164.45
2019-06-07T08:27:40.662Z,101162.64
2019-06-07T08:30:46.541Z,101148.09
2019-06-07T08:32:43.611Z,101138.29
2019-06-07T08:36:02.602Z,101141.79
2019-06-07T08:40:18.985Z,101140.19
2019-06-07T08:43:11.350Z,101139.70
2019-06-07T08:45:21.848Z,101136.14
2019-06-07T08:47:59.373Z,101124.14
2019-06-07T08:50:25.336Z,101127.97
2019-06-07T08:53:02.855Z,101137.80
2019-06-07T08:55:30.277Z,101126.68
2019-06-07T08:58:04.225Z,101123.08
2019-06-07T09:00:48.156Z,101124.77
2019-06-07T09:03:07.490Z,101124.45
2019-06-07T09:05:37.254Z,101123.11
2019-06-07T09:08:28.744Z,101121.19
2019-06-07T09:10:39.200Z,101126.09
2019-06-07T09:13:11.640Z,101117.48
2019-06-07T09:15:41.163Z,101117.38
2019-06-07T09:20:46.148Z,101118.37
2019-06-07T09:23:17.810Z,101116.55
2019-06-07T09:25:57.100Z,101112.01
2019-06-07T09:28:21.842Z,101107.67
2019-06-07T09:30:51.966Z,101104.61
2019-06-07T09:33:22.093Z,101106.78
2019-06-07T09:35:52.753Z,101100.23
2019-06-07T09:38:26.038Z,101096.28
2019-06-07T09:40:54.743Z,101097.13
2019-06-07T09:44:00.701Z,101096.27
2019-06-07T09:45:58.865Z,101086.73
2019-06-07T09:51:06.181Z,101089.39
2019-06-07T09:53:32.484Z,101085.93
2019-06-07T09:56:06.914Z,101082.88
2019-06-07T09:58:52.658Z,101087.06
2019-06-07T10:01:12.391Z,101084.47
2019-06-07T10:03:38.159Z,101075.40
2019-06-07T10:06:13.201Z,101070.97
2019-06-07T10:11:16.604Z,101065.76
2019-06-07T10:13:46.838Z,101062.30
2019-06-07T10:16:17.025Z,101055.05
2019-06-07T10:18:47.154Z,101050.53
2019-06-07T10:21:17.284Z,101038.15
2019-06-07T10:23:47.572Z,101040.80
2019-06-07T10:26:17.649Z,101038.01
2019-06-07T10:28:47.771Z,101039.28
2019-06-07T10:31:17.897Z,101035.09
2019-06-07T10:33:48.000Z,101036.33
2019-06-07T10:36:18.086Z,101051.02
2019-06-07T10:38:48.157Z,101040.62
2019-06-07T10:41:18.242Z,101039.88
2019-06-07T10:43:48.586Z,101038.16
2019-06-07T10:46:18.728Z,101034.53
2019-06-07T10:48:48.777Z,101034.58
2019-06-07T10:51:18.871Z,101033.37
2019-06-07T10:53:48.973Z,101051.41
2019-06-07T10:56:19.128Z,101039.59
2019-06-07T10:58:49.259Z,101031.00
2019-06-07T11:01:19.335Z,101037.20
2019-06-07T11:03:49.436Z,101036.26
2019-06-07T11:06:19.557Z,101034.63
2019-06-07T11:08:50.958Z,101034.64
2019-06-07T11:11:21.039Z,101030.58
2019-06-07T11:13:52.566Z,101032.75
2019-06-07T11:16:22.738Z,101030.94
2019-06-07T11:18:52.844Z,101028.11
2019-06-07T11:21:22.911Z,101020.27
2019-06-07T11:23:52.977Z,101018.64
2019-06-07T11:26:23.074Z,101007.44
2019-06-07T11:28:53.157Z,101009.31
2019-06-07T11:31:23.277Z,101011.25
2019-06-07T11:33:53.387Z,101002.63
2019-06-07T11:36:23.484Z,101004.71
2019-06-07T11:38:53.574Z,100995.84
2019-06-07T11:41:23.687Z,100989.50
2019-06-07T11:43:53.778Z,100994.02
2019-06-07T11:46:23.875Z,100991.80
2019-06-07T11:48:54.109Z,100975.64
2019-06-07T11:51:24.303Z,100969.17
2019-06-07T11:53:54.368Z,100955.99
2019-06-07T11:56:24.490Z,100961.46
2019-06-07T11:58:54.578Z,100954.41
2019-06-07T12:01:24.716Z,100954.17
2019-06-07T12:03:58.238Z,100942.18
2019-06-07T12:06:26.693Z,100939.08
2019-06-07T12:08:56.783Z,100940.08
2019-06-07T12:11:26.898Z,100934.66
2019-06-07T12:13:57.046Z,100939.20
2019-06-07T12:16:27.179Z,100930.02
2019-06-07T12:18:57.266Z,100924.73
2019-06-07T12:21:27.344Z,100919.53
2019-06-07T12:23:57.455Z,100910.84
2019-06-07T12:26:27.555Z,100911.16
2019-06-07T12:28:57.722Z,100907.95
2019-06-07T12:31:28.678Z,100895.88
2019-06-07T12:33:58.773Z,100893.29
2019-06-07T12:36:28.916Z,100889.41
2019-06-07T12:38:58.988Z,100893.33
2019-06-07T12:41:29.216Z,100894.56
2019-06-07T12:43:59.398Z,100883.46
2019-06-07T12:46:29.486Z,100882.11
2019-06-07T12:48:59.618Z,100877.32
2019-06-07T12:51:29.716Z,100870.05
2019-06-07T12:53:59.827Z,100876.30
2019-06-07T12:56:29.952Z,100872.92
2019-06-07T12:59:00.054Z,100874.12
2019-06-07T13:01:30.145Z,100863.94
2019-06-07T13:04:00.320Z,100862.02
2019-06-07T13:06:30.407Z,100863.05
2019-06-07T13:09:00.567Z,100860.14
2019-06-07T13:11:31.792Z,100862.52
2019-06-07T13:14:02.148Z,100855.04
2019-06-07T13:16:32.242Z,100852.80
2019-06-07T13:19:02.317Z,100851.25
2019-06-07T13:21:32.458Z,100845.94
2019-06-07T13:24:02.549Z,100843.29
2019-06-07T13:26:32.659Z,100837.59
2019-06-07T13:29:03.567Z,100848.72
2019-06-07T13:31:33.663Z,100847.77
2019-06-07T13:34:03.798Z,100843.29
2019-06-07T13:36:33.883Z,100834.76
2019-06-07T13:39:05.160Z,100842.05
2019-06-07T13:41:42.492Z,100835.59
2019-06-07T13:44:07.105Z,100834.94
2019-06-07T13:46:37.197Z,100832.19
2019-06-07T13:49:07.304Z,100831.73
2019-06-07T13:51:37.413Z,100830.49
2019-06-07T13:54:07.500Z,100819.89
2019-06-07T13:56:37.606Z,100812.63
2019-06-07T13:59:07.731Z,100808.06
2019-06-07T14:01:37.859Z,100804.76
2019-06-07T14:04:08.016Z,100802.40
2019-06-07T14:06:38.966Z,100788.09
2019-06-07T14:09:09.204Z,100795.05
2019-06-07T14:11:49.846Z,100793.37
2019-06-07T14:14:11.134Z,100796.87
2019-06-07T14:16:41.214Z,100785.67
2019-06-07T14:19:11.315Z,100774.66
2019-06-07T14:21:41.391Z,100774.36
2019-06-07T14:24:11.529Z,100780.28
2019-06-07T14:26:43.824Z,100766.44
2019-06-07T14:29:13.923Z,100769.86
2019-06-07T14:31:44.023Z,100770.22
2019-06-07T14:34:14.122Z,100761.16
2019-06-07T14:36:44.305Z,100761.21
2019-06-07T14:39:17.344Z,100760.41
2019-06-07T14:41:47.431Z,100755.77
2019-06-07T14:44:17.503Z,100758.52
2019-06-07T14:46:47.613Z,100757.66
2019-06-07T14:49:17.686Z,100753.53
2019-06-07T14:51:47.808Z,100747.67
2019-06-07T14:54:17.941Z,100741.34
2019-06-07T14:56:48.052Z,100745.73
2019-06-07T14:59:18.156Z,100741.38
2019-06-07T15:01:48.346Z,100746.81
2019-06-07T15:04:18.411Z,100744.03
2019-06-07T15:06:48.503Z,100743.67
2019-06-07T15:09:18.584Z,100729.20
2019-06-07T15:11:48.649Z,100717.58
2019-06-07T15:14:18.757Z,100718.23
2019-06-07T15:16:48.902Z,100713.09
2019-06-07T15:19:19.022Z,100697.78
2019-06-07T15:21:49.132Z,100704.69
2019-06-07T15:24:19.214Z,100683.59
2019-06-07T15:26:49.339Z,100680.20
2019-06-07T15:29:19.437Z,100684.24
2019-06-07T15:31:49.591Z,100679.28
2019-06-07T15:34:19.643Z,100672.13
2019-06-07T15:36:49.934Z,100678.34
2019-06-07T15:39:19.980Z,100668.98
2019-06-07T15:41:50.093Z,100664.14
2019-06-07T15:44:20.234Z,100661.95
2019-06-07T15:46:50.307Z,100654.45
2019-06-07T15:49:20.399Z,100654.42
2019-06-07T15:51:50.539Z,100660.90
2019-06-07T15:54:20.632Z,100649.49
2019-06-07T15:56:50.745Z,100637.23
2019-06-07T15:59:20.828Z,100636.53
2019-06-07T16:01:50.929Z,100647.59
2019-06-07T16:04:21.050Z,100632.50
2019-06-07T16:06:51.152Z,100623.31
2019-06-07T16:09:21.220Z,100623.45
2019-06-07T16:11:51.421Z,100621.25
2019-06-07T16:14:21.517Z,100609.17
2019-06-07T16:16:51.671Z,100614.81
2019-06-07T16:19:21.769Z,100614.97
2019-06-07T16:21:52.090Z,100606.03
2019-06-07T16:24:23.060Z,100608.79
2019-06-07T16:26:53.127Z,100600.71
2019-06-07T16:29:23.232Z,100599.76
2019-06-07T16:31:53.292Z,100608.88
2019-06-07T16:34:23.424Z,100591.88
2019-06-07T16:36:53.492Z,100590.34
2019-06-07T16:39:23.578Z,100584.73
2019-06-07T16:41:53.654Z,100582.08
2019-06-07T16:44:23.793Z,100571.77
2019-06-07T16:46:53.886Z,100565.66
2019-06-07T16:49:24.025Z,100568.56
2019-06-07T16:51:54.341Z,100571.17
2019-06-07T16:54:24.417Z,100574.07
2019-06-07T16:56:54.502Z,100572.94
2019-06-07T16:59:24.649Z,100580.58
2019-06-07T17:01:54.719Z,100572.02
2019-06-07T17:04:24.827Z,100579.86
2019-06-07T17:06:54.888Z,100567.57
2019-06-07T17:09:24.982Z,100569.88
2019-06-07T17:11:55.074Z,100565.17
2019-06-07T17:14:25.186Z,100561.97
2019-06-07T17:16:55.278Z,100560.47
2019-06-07T17:19:25.376Z,100562.55
2019-06-07T17:21:55.451Z,100559.77
2019-06-07T17:24:26.833Z,100548.06
2019-06-07T17:26:57.022Z,100550.25
2019-06-07T17:29:27.101Z,100545.45
2019-06-07T17:31:57.183Z,100547.94
2019-06-07T17:34:27.341Z,100551.98
2019-06-07T17:36:57.478Z,100556.67
2019-06-07T17:39:27.581Z,100550.50
2019-06-07T17:42:02.023Z,100542.79
2019-06-07T17:44:29.640Z,100549.63
2019-06-07T17:46:59.730Z,100556.48
2019-06-07T17:49:29.878Z,100548.16
2019-06-07T17:51:59.990Z,100545.59
2019-06-07T17:54:30.147Z,100544.12
2019-06-07T17:57:00.319Z,100543.91
2019-06-07T17:59:30.469Z,100545.72
2019-06-07T18:02:14.440Z,100549.86
2019-06-07T18:04:32.410Z,100539.40
2019-06-07T18:07:02.660Z,100541.21
2019-06-07T18:09:34.516Z,100532.70
2019-06-07T18:12:05.279Z,100532.77
2019-06-07T18:14:35.388Z,100538.17
2019-06-07T18:17:05.523Z,100536.14
2019-06-07T18:19:35.610Z,100531.83
2019-06-07T18:22:05.731Z,100534.92
2019-06-07T18:24:35.812Z,100538.76
2019-06-07T18:27:07.189Z,100542.61
2019-06-07T18:29:37.428Z,100544.93
2019-06-07T18:32:07.527Z,100547.09
2019-06-07T18:34:37.652Z,100551.61
2019-06-07T18:37:07.796Z,100543.05
2019-06-07T18:39:37.917Z,100546.89
2019-06-07T18:42:08.546Z,100547.83
2019-06-07T18:44:38.668Z,100554.84
2019-06-07T18:47:08.814Z,100549.16
2019-06-07T18:49:38.951Z,100538.31
2019-06-07T18:52:15.406Z,100537.15
2019-06-07T18:54:46.699Z,100539.10
2019-06-07T18:57:16.972Z,100539.91
2019-06-07T18:59:48.246Z,100531.99
2019-06-07T19:02:18.488Z,100533.98
2019-06-07T19:04:50.450Z,100530.97
2019-06-07T19:07:20.394Z,100528.02
2019-06-07T19:09:50.632Z,100521.78
2019-06-07T19:12:22.845Z,100528.59
2019-06-07T19:14:53.274Z,100526.73
2019-06-07T19:17:23.530Z,100525.97
2019-06-07T19:19:54.172Z,100538.61
2019-06-07T19:22:24.309Z,100550.98
2019-06-07T19:24:54.410Z,100552.26
2019-06-07T19:27:24.546Z,100551.77
2019-06-07T19:29:57.458Z,100546.22
2019-06-07T19:32:27.565Z,100555.44
2019-06-07T19:34:57.702Z,100558.11
2019-06-07T19:37:27.818Z,100566.40
2019-06-07T19:39:58.050Z,100571.17
2019-06-07T19:42:28.171Z,100582.47
2019-06-07T19:45:16.969Z,100581.39
2019-06-07T19:47:30.244Z,100586.00
2019-06-07T19:50:00.931Z,100586.55
2019-06-07T19:52:31.171Z,100590.71
2019-06-07T19:55:05.766Z,100578.79
2019-06-07T19:57:33.230Z,100566.73
2019-06-07T20:00:13.156Z,100557.38
2019-06-07T20:02:35.383Z,100553.45
2019-06-07T20:05:06.949Z,100552.67
2019-06-07T20:07:37.107Z,100543.95
2019-06-07T20:10:07.253Z,100552.58
2019-06-07T20:12:37.390Z,100549.30
2019-06-07T20:15:27.297Z,100559.90
2019-06-07T20:17:39.629Z,100560.42
2019-06-07T20:20:11.585Z,100575.73
2019-06-07T20:22:41.796Z,100582.16
2019-06-07T20:25:13.297Z,100593.17
2019-06-07T20:27:43.447Z,100600.78
2019-06-07T20:30:15.006Z,100608.81
2019-06-07T20:32:45.120Z,100618.54
2019-06-07T20:35:15.566Z,100634.30
2019-06-07T20:37:45.681Z,100640.71
2019-06-07T20:40:24.210Z,100649.79
2019-06-07T20:42:49.862Z,100654.82
2019-06-07T20:45:32.529Z,100651.13
2019-06-07T20:47:52.174Z,100660.41
2019-06-07T20:50:22.319Z,100656.55
2019-06-07T20:52:52.417Z,100655.31
2019-06-07T20:55:22.534Z,100656.94
2019-06-07T20:57:52.670Z,100656.50
2019-06-07T21:00:22.772Z,100653.97
2019-06-07T21:02:52.844Z,100643.13
2019-06-07T21:05:22.946Z,100635.73
2019-06-07T21:07:53.065Z,100621.82
2019-06-07T21:10:23.295Z,100610.61
2019-06-07T21:12:53.395Z,100609.83
2019-06-07T21:15:23.505Z,100609.55
2019-06-07T21:17:53.635Z,100615.06
2019-06-07T21:20:24.070Z,100615.75
2019-06-07T21:22:54.242Z,100621.47
2019-06-07T21:25:24.364Z,100649.48
2019-06-07T21:27:54.451Z,100651.14
2019-06-07T21:30:24.565Z,100644.42
2019-06-07T21:32:55.445Z,100656.94
2019-06-07T21:35:25.554Z,100661.84
2019-06-07T21:37:55.661Z,100684.46
2019-06-07T21:40:25.777Z,100688.68
2019-06-07T21:42:55.879Z,100712.23
2019-06-07T21:45:26.056Z,100719.53
2019-06-07T21:47:56.181Z,100722.24
2019-06-07T21:50:26.313Z,100711.48
2019-06-07T21:52:56.429Z,100696.40
2019-06-07T21:55:26.519Z,100667.98
2019-06-07T21:57:56.786Z,100647.50
2019-06-07T22:01:08.460Z,100664.96
2019-06-07T22:03:39.338Z,100692.27
2019-06-07T22:06:09.738Z,100702.19
2019-06-07T22:08:39.928Z,100697.99
2019-06-07T22:11:10.276Z,100704.41
2019-06-07T22:13:40.457Z,100720.55
2019-06-07T22:16:23.381Z,100751.38
2019-06-07T22:18:42.595Z,100770.53
2019-06-07T22:21:12.788Z,100767.22
2019-06-07T22:23:43.818Z,100762.94
2019-06-07T22:26:15.498Z,100778.58
2019-06-07T22:28:45.831Z,100789.73
2019-06-07T22:31:15.943Z,100779.05
2019-06-07T22:33:46.031Z,100789.34
2019-06-07T22:36:16.173Z,100780.25
2019-06-07T22:38:46.252Z,100766.55
2019-06-07T22:41:17.583Z,100762.08
2019-06-07T22:43:47.872Z,100781.30
2019-06-07T22:46:19.226Z,100801.49
2019-06-07T22:48:49.414Z,100796.39
2019-06-07T22:51:19.508Z,100791.36
2019-06-07T22:53:49.620Z,100783.60
2019-06-07T22:56:33.914Z,100772.91
2019-06-07T22:59:04.037Z,100752.96
2019-06-07T23:01:34.155Z,100730.72
2019-06-07T23:04:04.385Z,100705.08
2019-06-07T23:06:34.479Z,100675.16
2019-06-07T23:09:05.555Z,100660.63
2019-06-07T23:11:35.656Z,100680.80
2019-06-07T23:14:05.769Z,100692.41
2019-06-07T23:16:35.856Z,100716.52
2019-06-07T23:19:06.469Z,100726.82
2019-06-07T23:21:36.545Z,100702.56
2019-06-07T23:24:06.633Z,100690.32
2019-06-07T23:26:36.716Z,100698.05
2019-06-07T23:29:06.821Z,100669.22
2019-06-07T23:31:36.909Z,100660.53
2019-06-07T23:34:06.992Z,100644.17
2019-06-07T23:36:37.096Z,100658.80
2019-06-07T23:39:08.500Z,100707.30
2019-06-07T23:41:38.558Z,100676.85
2019-06-07T23:44:08.669Z,100597.87
2019-06-07T23:46:38.740Z,100602.25
2019-06-07T23:49:11.893Z,100617.73
2019-06-07T23:51:42.152Z,100637.80
2019-06-07T23:54:12.244Z,100674.36
2019-06-07T23:56:43.387Z,100704.73
2019-06-07T23:59:14.215Z,100694.88
